sensor_id;sensor_type;location;lat;lon;timestamp;P1;durP1;ratioP1;P2;durP2;ratioP2
55684;SDS011;41883;49.544;8.646;2022-09-13T00:00:28;3.10;;;2.73;;
55684;SDS011;41883;49.544;8.646;2022-09-13T00:02:54;3.00;;;2.50;;
55684;SDS011;41883;49.544;8.646;2022-09-13T00:05:19;4.03;;;3.28;;
55684;SDS011;41883;49.544;8.646;2022-09-13T00:07:44;3.70;;;3.25;;
55684;SDS011;41883;49.544;8.646;2022-09-13T00:10:09;3.72;;;3.00;;
55684;SDS011;41883;49.544;8.646;2022-09-13T00:12:35;3.73;;;3.07;;
55684;SDS011;41883;49.544;8.646;2022-09-13T00:15:00;4.30;;;3.23;;
55684;SDS011;41883;49.544;8.646;2022-09-13T00:17:26;3.63;;;2.75;;
55684;SDS011;41883;49.544;8.646;2022-09-13T00:19:51;3.30;;;2.65;;
55684;SDS011;41883;49.544;8.646;2022-09-13T00:22:16;3.85;;;2.80;;
55684;SDS011;41883;49.544;8.646;2022-09-13T00:24:42;3.40;;;2.70;;
55684;SDS011;41883;49.544;8.646;2022-09-13T00:27:07;2.95;;;2.50;;
55684;SDS011;41883;49.544;8.646;2022-09-13T00:29:32;3.20;;;2.67;;
55684;SDS011;41883;49.544;8.646;2022-09-13T00:31:58;2.55;;;2.13;;
55684;SDS011;41883;49.544;8.646;2022-09-13T00:34:23;3.28;;;2.63;;
55684;SDS011;41883;49.544;8.646;2022-09-13T00:36:48;3.22;;;2.45;;
55684;SDS011;41883;49.544;8.646;2022-09-13T00:39:13;4.20;;;2.20;;
55684;SDS011;41883;49.544;8.646;2022-09-13T00:41:39;2.67;;;2.30;;
55684;SDS011;41883;49.544;8.646;2022-09-13T00:44:04;3.13;;;2.30;;
55684;SDS011;41883;49.544;8.646;2022-09-13T00:47:08;2.38;;;2.08;;
55684;SDS011;41883;49.544;8.646;2022-09-13T00:49:35;2.30;;;2.10;;
55684;SDS011;41883;49.544;8.646;2022-09-13T00:52:05;3.10;;;2.40;;
55684;SDS011;41883;49.544;8.646;2022-09-13T00:54:45;2.85;;;2.40;;
55684;SDS011;41883;49.544;8.646;2022-09-13T00:57:15;3.67;;;2.50;;
55684;SDS011;41883;49.544;8.646;2022-09-13T01:02:37;2.63;;;2.40;;
55684;SDS011;41883;49.544;8.646;2022-09-13T01:05:05;4.68;;;2.50;;
55684;SDS011;41883;49.544;8.646;2022-09-13T01:07:32;3.00;;;2.47;;
55684;SDS011;41883;49.544;8.646;2022-09-13T01:09:57;4.15;;;2.42;;
55684;SDS011;41883;49.544;8.646;2022-09-13T01:14:58;3.67;;;2.80;;
55684;SDS011;41883;49.544;8.646;2022-09-13T01:17:28;3.25;;;2.60;;
55684;SDS011;41883;49.544;8.646;2022-09-13T01:19:54;5.43;;;2.88;;
55684;SDS011;41883;49.544;8.646;2022-09-13T01:22:29;3.47;;;2.97;;
55684;SDS011;41883;49.544;8.646;2022-09-13T01:25:15;3.58;;;2.88;;
55684;SDS011;41883;49.544;8.646;2022-09-13T01:30:23;2.42;;;2.08;;
55684;SDS011;41883;49.544;8.646;2022-09-13T01:35:45;2.47;;;2.00;;
55684;SDS011;41883;49.544;8.646;2022-09-13T01:40:57;2.75;;;2.30;;
55684;SDS011;41883;49.544;8.646;2022-09-13T01:46:37;2.13;;;1.90;;
55684;SDS011;41883;49.544;8.646;2022-09-13T01:54:30;2.95;;;1.85;;
55684;SDS011;41883;49.544;8.646;2022-09-13T02:02:15;2.17;;;1.65;;
55684;SDS011;41883;49.544;8.646;2022-09-13T02:04:47;3.47;;;1.50;;
55684;SDS011;41883;49.544;8.646;2022-09-13T02:07:18;2.00;;;1.50;;
55684;SDS011;41883;49.544;8.646;2022-09-13T02:09:51;2.80;;;2.00;;
55684;SDS011;41883;49.544;8.646;2022-09-13T02:12:23;2.28;;;1.95;;
55684;SDS011;41883;49.544;8.646;2022-09-13T02:14:59;2.30;;;2.00;;
55684;SDS011;41883;49.544;8.646;2022-09-13T02:17:29;3.90;;;2.08;;
55684;SDS011;41883;49.544;8.646;2022-09-13T02:20:02;3.38;;;2.78;;
55684;SDS011;41883;49.544;8.646;2022-09-13T02:22:34;3.40;;;3.00;;
55684;SDS011;41883;49.544;8.646;2022-09-13T02:25:08;4.45;;;2.55;;
55684;SDS011;41883;49.544;8.646;2022-09-13T02:27:36;3.15;;;2.70;;
55684;SDS011;41883;49.544;8.646;2022-09-13T02:30:06;3.65;;;3.20;;
55684;SDS011;41883;49.544;8.646;2022-09-13T02:32:38;3.00;;;2.45;;
55684;SDS011;41883;49.544;8.646;2022-09-13T02:35:12;2.83;;;2.10;;
55684;SDS011;41883;49.544;8.646;2022-09-13T02:37:44;3.60;;;3.10;;
55684;SDS011;41883;49.544;8.646;2022-09-13T02:40:16;4.55;;;3.47;;
55684;SDS011;41883;49.544;8.646;2022-09-13T02:42:48;5.38;;;3.45;;
55684;SDS011;41883;49.544;8.646;2022-09-13T02:45:18;3.88;;;3.20;;
55684;SDS011;41883;49.544;8.646;2022-09-13T02:47:58;4.22;;;3.20;;
55684;SDS011;41883;49.544;8.646;2022-09-13T02:50:31;3.47;;;3.00;;
55684;SDS011;41883;49.544;8.646;2022-09-13T02:53:25;3.78;;;3.05;;
55684;SDS011;41883;49.544;8.646;2022-09-13T02:56:04;5.05;;;3.20;;
55684;SDS011;41883;49.544;8.646;2022-09-13T02:58:36;4.35;;;3.80;;
55684;SDS011;41883;49.544;8.646;2022-09-13T03:01:05;5.03;;;3.80;;
55684;SDS011;41883;49.544;8.646;2022-09-13T03:03:30;4.65;;;3.75;;
55684;SDS011;41883;49.544;8.646;2022-09-13T03:05:56;3.65;;;2.90;;
55684;SDS011;41883;49.544;8.646;2022-09-13T03:08:21;5.60;;;3.95;;
55684;SDS011;41883;49.544;8.646;2022-09-13T03:16:40;5.32;;;3.00;;
55684;SDS011;41883;49.544;8.646;2022-09-13T03:22:31;3.20;;;2.63;;
55684;SDS011;41883;49.544;8.646;2022-09-13T03:27:45;3.35;;;2.50;;
55684;SDS011;41883;49.544;8.646;2022-09-13T03:30:25;6.00;;;3.17;;
55684;SDS011;41883;49.544;8.646;2022-09-13T03:32:59;3.22;;;2.80;;
55684;SDS011;41883;49.544;8.646;2022-09-13T03:35:43;3.00;;;2.70;;
55684;SDS011;41883;49.544;8.646;2022-09-13T03:38:27;2.88;;;2.40;;
55684;SDS011;41883;49.544;8.646;2022-09-13T03:46:04;2.90;;;2.35;;
55684;SDS011;41883;49.544;8.646;2022-09-13T03:48:39;2.88;;;2.40;;
55684;SDS011;41883;49.544;8.646;2022-09-13T03:51:07;4.53;;;2.90;;
55684;SDS011;41883;49.544;8.646;2022-09-13T03:53:34;3.83;;;2.80;;
55684;SDS011;41883;49.544;8.646;2022-09-13T03:56:15;3.80;;;2.58;;
55684;SDS011;41883;49.544;8.646;2022-09-13T03:58:42;3.08;;;2.30;;
55684;SDS011;41883;49.544;8.646;2022-09-13T04:01:08;3.25;;;2.60;;
55684;SDS011;41883;49.544;8.646;2022-09-13T04:03:34;4.50;;;3.13;;
55684;SDS011;41883;49.544;8.646;2022-09-13T04:06:00;4.68;;;2.97;;
55684;SDS011;41883;49.544;8.646;2022-09-13T04:08:26;3.27;;;2.63;;
55684;SDS011;41883;49.544;8.646;2022-09-13T04:10:51;4.23;;;2.60;;
55684;SDS011;41883;49.544;8.646;2022-09-13T04:13:17;2.90;;;2.30;;
55684;SDS011;41883;49.544;8.646;2022-09-13T04:15:43;3.05;;;2.35;;
55684;SDS011;41883;49.544;8.646;2022-09-13T04:18:08;2.50;;;2.20;;
55684;SDS011;41883;49.544;8.646;2022-09-13T04:20:34;2.40;;;2.00;;
55684;SDS011;41883;49.544;8.646;2022-09-13T04:23:00;2.90;;;2.05;;
55684;SDS011;41883;49.544;8.646;2022-09-13T04:25:25;2.92;;;2.30;;
55684;SDS011;41883;49.544;8.646;2022-09-13T04:27:53;3.83;;;2.30;;
55684;SDS011;41883;49.544;8.646;2022-09-13T04:30:19;3.30;;;2.40;;
55684;SDS011;41883;49.544;8.646;2022-09-13T04:32:45;3.53;;;2.80;;
55684;SDS011;41883;49.544;8.646;2022-09-13T04:35:11;4.20;;;2.80;;
55684;SDS011;41883;49.544;8.646;2022-09-13T04:37:36;3.65;;;2.83;;
55684;SDS011;41883;49.544;8.646;2022-09-13T04:40:02;3.47;;;3.03;;
55684;SDS011;41883;49.544;8.646;2022-09-13T04:42:29;4.53;;;2.67;;
55684;SDS011;41883;49.544;8.646;2022-09-13T04:44:54;4.03;;;2.83;;
55684;SDS011;41883;49.544;8.646;2022-09-13T04:47:19;4.97;;;2.67;;
55684;SDS011;41883;49.544;8.646;2022-09-13T04:49:45;3.55;;;2.40;;
55684;SDS011;41883;49.544;8.646;2022-09-13T04:52:12;3.33;;;2.63;;
55684;SDS011;41883;49.544;8.646;2022-09-13T04:54:38;3.30;;;2.50;;
55684;SDS011;41883;49.544;8.646;2022-09-13T04:57:03;3.42;;;2.83;;
55684;SDS011;41883;49.544;8.646;2022-09-13T04:59:28;4.00;;;3.10;;
55684;SDS011;41883;49.544;8.646;2022-09-13T05:01:54;4.00;;;3.30;;
55684;SDS011;41883;49.544;8.646;2022-09-13T05:04:19;3.75;;;3.35;;
55684;SDS011;41883;49.544;8.646;2022-09-13T05:06:45;3.17;;;2.67;;
55684;SDS011;41883;49.544;8.646;2022-09-13T05:09:12;3.22;;;2.40;;
55684;SDS011;41883;49.544;8.646;2022-09-13T05:11:38;3.03;;;2.30;;
55684;SDS011;41883;49.544;8.646;2022-09-13T05:14:03;3.75;;;2.22;;
55684;SDS011;41883;49.544;8.646;2022-09-13T05:16:30;3.83;;;2.63;;
55684;SDS011;41883;49.544;8.646;2022-09-13T05:18:56;5.38;;;2.50;;
55684;SDS011;41883;49.544;8.646;2022-09-13T05:21:22;2.58;;;2.00;;
55684;SDS011;41883;49.544;8.646;2022-09-13T05:23:49;5.10;;;3.03;;
55684;SDS011;41883;49.544;8.646;2022-09-13T05:26:18;3.78;;;2.65;;
55684;SDS011;41883;49.544;8.646;2022-09-13T05:28:44;6.82;;;3.03;;
55684;SDS011;41883;49.544;8.646;2022-09-13T05:31:12;4.65;;;2.80;;
55684;SDS011;41883;49.544;8.646;2022-09-13T05:33:40;3.10;;;2.53;;
55684;SDS011;41883;49.544;8.646;2022-09-13T05:36:06;3.60;;;2.75;;
55684;SDS011;41883;49.544;8.646;2022-09-13T05:38:31;3.65;;;2.30;;
55684;SDS011;41883;49.544;8.646;2022-09-13T05:40:57;3.42;;;2.97;;
55684;SDS011;41883;49.544;8.646;2022-09-13T05:43:25;3.65;;;2.80;;
55684;SDS011;41883;49.544;8.646;2022-09-13T05:46:04;4.63;;;2.63;;
55684;SDS011;41883;49.544;8.646;2022-09-13T05:48:31;4.40;;;2.72;;
55684;SDS011;41883;49.544;8.646;2022-09-13T05:51:02;4.53;;;3.20;;
55684;SDS011;41883;49.544;8.646;2022-09-13T05:53:30;3.30;;;2.53;;
55684;SDS011;41883;49.544;8.646;2022-09-13T05:55:56;5.70;;;3.28;;
55684;SDS011;41883;49.544;8.646;2022-09-13T05:58:21;4.80;;;3.42;;
55684;SDS011;41883;49.544;8.646;2022-09-13T06:00:51;5.07;;;3.50;;
55684;SDS011;41883;49.544;8.646;2022-09-13T06:03:19;3.88;;;2.65;;
55684;SDS011;41883;49.544;8.646;2022-09-13T06:05:45;5.10;;;2.65;;
55684;SDS011;41883;49.544;8.646;2022-09-13T06:08:10;3.30;;;2.40;;
55684;SDS011;41883;49.544;8.646;2022-09-13T06:10:36;3.00;;;2.28;;
55684;SDS011;41883;49.544;8.646;2022-09-13T06:13:01;3.43;;;2.30;;
55684;SDS011;41883;49.544;8.646;2022-09-13T06:15:26;4.03;;;2.40;;
55684;SDS011;41883;49.544;8.646;2022-09-13T06:17:51;3.13;;;2.40;;
55684;SDS011;41883;49.544;8.646;2022-09-13T06:20:17;3.53;;;2.47;;
55684;SDS011;41883;49.544;8.646;2022-09-13T06:22:42;4.77;;;2.77;;
55684;SDS011;41883;49.544;8.646;2022-09-13T06:25:07;3.17;;;2.60;;
55684;SDS011;41883;49.544;8.646;2022-09-13T06:27:33;3.38;;;2.47;;
55684;SDS011;41883;49.544;8.646;2022-09-13T06:29:58;3.35;;;2.70;;
55684;SDS011;41883;49.544;8.646;2022-09-13T06:32:24;3.60;;;2.63;;
55684;SDS011;41883;49.544;8.646;2022-09-13T06:34:49;4.97;;;2.53;;
55684;SDS011;41883;49.544;8.646;2022-09-13T06:37:17;3.42;;;2.75;;
55684;SDS011;41883;49.544;8.646;2022-09-13T06:39:42;4.72;;;2.70;;
55684;SDS011;41883;49.544;8.646;2022-09-13T06:44:33;4.20;;;3.05;;
55684;SDS011;41883;49.544;8.646;2022-09-13T06:46:58;3.50;;;2.80;;
55684;SDS011;41883;49.544;8.646;2022-09-13T06:49:24;3.67;;;2.45;;
55684;SDS011;41883;49.544;8.646;2022-09-13T06:51:49;3.73;;;2.77;;
55684;SDS011;41883;49.544;8.646;2022-09-13T06:54:14;4.63;;;3.57;;
55684;SDS011;41883;49.544;8.646;2022-09-13T06:56:39;3.70;;;3.10;;
55684;SDS011;41883;49.544;8.646;2022-09-13T06:59:05;3.83;;;2.60;;
55684;SDS011;41883;49.544;8.646;2022-09-13T07:01:36;4.55;;;2.67;;
55684;SDS011;41883;49.544;8.646;2022-09-13T07:04:04;4.20;;;2.40;;
55684;SDS011;41883;49.544;8.646;2022-09-13T07:06:33;4.00;;;2.95;;
55684;SDS011;41883;49.544;8.646;2022-09-13T07:09:00;3.83;;;3.17;;
55684;SDS011;41883;49.544;8.646;2022-09-13T07:11:28;3.63;;;2.90;;
55684;SDS011;41883;49.544;8.646;2022-09-13T07:13:56;3.53;;;2.60;;
55684;SDS011;41883;49.544;8.646;2022-09-13T07:16:23;4.03;;;2.80;;
55684;SDS011;41883;49.544;8.646;2022-09-13T07:18:51;3.20;;;2.38;;
55684;SDS011;41883;49.544;8.646;2022-09-13T07:21:24;3.75;;;2.30;;
55684;SDS011;41883;49.544;8.646;2022-09-13T07:23:51;3.45;;;2.50;;
55684;SDS011;41883;49.544;8.646;2022-09-13T07:26:18;2.60;;;2.00;;
55684;SDS011;41883;49.544;8.646;2022-09-13T07:28:45;3.53;;;2.65;;
55684;SDS011;41883;49.544;8.646;2022-09-13T07:33:44;3.50;;;2.58;;
55684;SDS011;41883;49.544;8.646;2022-09-13T07:36:10;3.85;;;2.45;;
55684;SDS011;41883;49.544;8.646;2022-09-13T07:38:37;3.50;;;2.90;;
55684;SDS011;41883;49.544;8.646;2022-09-13T07:41:04;3.40;;;2.67;;
55684;SDS011;41883;49.544;8.646;2022-09-13T07:43:32;3.95;;;3.10;;
55684;SDS011;41883;49.544;8.646;2022-09-13T07:45:59;3.38;;;2.67;;
55684;SDS011;41883;49.544;8.646;2022-09-13T07:48:30;5.15;;;3.15;;
55684;SDS011;41883;49.544;8.646;2022-09-13T07:50:57;4.60;;;3.17;;
55684;SDS011;41883;49.544;8.646;2022-09-13T07:53:27;4.50;;;3.30;;
55684;SDS011;41883;49.544;8.646;2022-09-13T07:55:53;4.88;;;3.65;;
55684;SDS011;41883;49.544;8.646;2022-09-13T07:58:23;3.45;;;2.75;;
55684;SDS011;41883;49.544;8.646;2022-09-13T08:00:48;5.57;;;3.63;;
55684;SDS011;41883;49.544;8.646;2022-09-13T08:03:14;4.28;;;3.30;;
55684;SDS011;41883;49.544;8.646;2022-09-13T08:05:40;4.13;;;3.13;;
55684;SDS011;41883;49.544;8.646;2022-09-13T08:08:06;3.33;;;2.80;;
55684;SDS011;41883;49.544;8.646;2022-09-13T08:10:32;6.88;;;3.90;;
55684;SDS011;41883;49.544;8.646;2022-09-13T08:12:58;3.92;;;3.30;;
55684;SDS011;41883;49.544;8.646;2022-09-13T08:15:24;3.00;;;2.60;;
55684;SDS011;41883;49.544;8.646;2022-09-13T08:17:49;3.88;;;2.80;;
55684;SDS011;41883;49.544;8.646;2022-09-13T08:20:14;4.97;;;2.80;;
55684;SDS011;41883;49.544;8.646;2022-09-13T08:22:40;3.13;;;2.00;;
55684;SDS011;41883;49.544;8.646;2022-09-13T08:25:05;1.93;;;1.70;;
55684;SDS011;41883;49.544;8.646;2022-09-13T08:27:31;2.85;;;2.15;;
55684;SDS011;41883;49.544;8.646;2022-09-13T08:29:56;2.77;;;2.33;;
55684;SDS011;41883;49.544;8.646;2022-09-13T08:32:21;2.80;;;2.15;;
55684;SDS011;41883;49.544;8.646;2022-09-13T08:34:47;4.60;;;2.60;;
55684;SDS011;41883;49.544;8.646;2022-09-13T08:37:12;3.87;;;2.60;;
55684;SDS011;41883;49.544;8.646;2022-09-13T08:39:37;3.55;;;2.75;;
55684;SDS011;41883;49.544;8.646;2022-09-13T08:42:06;2.80;;;2.20;;
55684;SDS011;41883;49.544;8.646;2022-09-13T08:44:46;2.90;;;2.50;;
55684;SDS011;41883;49.544;8.646;2022-09-13T08:50:38;4.38;;;2.85;;
55684;SDS011;41883;49.544;8.646;2022-09-13T08:56:14;3.50;;;2.47;;
55684;SDS011;41883;49.544;8.646;2022-09-13T08:58:33;5.38;;;3.35;;
55684;SDS011;41883;49.544;8.646;2022-09-13T09:01:06;3.20;;;2.60;;
55684;SDS011;41883;49.544;8.646;2022-09-13T09:03:48;4.85;;;3.00;;
55684;SDS011;41883;49.544;8.646;2022-09-13T09:06:20;3.55;;;2.78;;
55684;SDS011;41883;49.544;8.646;2022-09-13T09:11:26;5.70;;;3.17;;
55684;SDS011;41883;49.544;8.646;2022-09-13T09:14:10;4.57;;;3.47;;
55684;SDS011;41883;49.544;8.646;2022-09-13T09:16:45;4.05;;;2.92;;
55684;SDS011;41883;49.544;8.646;2022-09-13T09:21:58;4.18;;;3.15;;
55684;SDS011;41883;49.544;8.646;2022-09-13T09:24:28;3.40;;;2.70;;
55684;SDS011;41883;49.544;8.646;2022-09-13T09:27:00;3.55;;;2.50;;
55684;SDS011;41883;49.544;8.646;2022-09-13T09:29:27;3.97;;;2.28;;
55684;SDS011;41883;49.544;8.646;2022-09-13T09:31:59;3.60;;;2.60;;
55684;SDS011;41883;49.544;8.646;2022-09-13T09:39:42;4.33;;;2.97;;
55684;SDS011;41883;49.544;8.646;2022-09-13T09:42:15;5.30;;;3.20;;
55684;SDS011;41883;49.544;8.646;2022-09-13T09:45:44;3.90;;;3.10;;
55684;SDS011;41883;49.544;8.646;2022-09-13T09:47:59;3.20;;;2.70;;
55684;SDS011;41883;49.544;8.646;2022-09-13T09:50:35;6.47;;;3.13;;
55684;SDS011;41883;49.544;8.646;2022-09-13T09:58:40;3.80;;;2.78;;
55684;SDS011;41883;49.544;8.646;2022-09-13T10:01:20;3.58;;;2.22;;
55684;SDS011;41883;49.544;8.646;2022-09-13T10:06:37;7.75;;;3.20;;
55684;SDS011;41883;49.544;8.646;2022-09-13T10:11:54;3.72;;;2.88;;
55684;SDS011;41883;49.544;8.646;2022-09-13T10:17:03;2.85;;;2.38;;
55684;SDS011;41883;49.544;8.646;2022-09-13T10:19:30;3.38;;;3.08;;
55684;SDS011;41883;49.544;8.646;2022-09-13T10:22:14;4.38;;;3.20;;
55684;SDS011;41883;49.544;8.646;2022-09-13T10:24:39;3.85;;;2.83;;
55684;SDS011;41883;49.544;8.646;2022-09-13T10:27:15;5.25;;;2.80;;
55684;SDS011;41883;49.544;8.646;2022-09-13T10:32:13;6.43;;;3.50;;
55684;SDS011;41883;49.544;8.646;2022-09-13T10:34:40;3.72;;;2.90;;
55684;SDS011;41883;49.544;8.646;2022-09-13T10:37:23;3.55;;;3.08;;
55684;SDS011;41883;49.544;8.646;2022-09-13T10:42:29;4.82;;;2.88;;
55684;SDS011;41883;49.544;8.646;2022-09-13T10:44:56;3.55;;;2.72;;
55684;SDS011;41883;49.544;8.646;2022-09-13T10:47:28;2.45;;;2.17;;
55684;SDS011;41883;49.544;8.646;2022-09-13T10:50:09;4.20;;;2.70;;
55684;SDS011;41883;49.544;8.646;2022-09-13T10:52:45;3.45;;;2.70;;
55684;SDS011;41883;49.544;8.646;2022-09-13T10:57:43;3.25;;;2.30;;
55684;SDS011;41883;49.544;8.646;2022-09-13T11:00:17;3.00;;;2.20;;
55684;SDS011;41883;49.544;8.646;2022-09-13T11:08:31;2.70;;;2.00;;
55684;SDS011;41883;49.544;8.646;2022-09-13T11:11:08;2.03;;;1.70;;
55684;SDS011;41883;49.544;8.646;2022-09-13T11:19:07;3.60;;;2.10;;
55684;SDS011;41883;49.544;8.646;2022-09-13T11:22:03;3.17;;;2.47;;
55684;SDS011;41883;49.544;8.646;2022-09-13T11:30:18;2.47;;;1.58;;
55684;SDS011;41883;49.544;8.646;2022-09-13T11:35:48;2.15;;;1.65;;
55684;SDS011;41883;49.544;8.646;2022-09-13T11:49:29;3.13;;;2.35;;
55684;SDS011;41883;49.544;8.646;2022-09-13T11:55:42;3.80;;;2.40;;
55684;SDS011;41883;49.544;8.646;2022-09-13T11:58:20;2.97;;;2.20;;
55684;SDS011;41883;49.544;8.646;2022-09-13T12:00:51;2.90;;;1.85;;
55684;SDS011;41883;49.544;8.646;2022-09-13T12:03:30;2.30;;;1.98;;
55684;SDS011;41883;49.544;8.646;2022-09-13T12:09:09;1.80;;;1.52;;
55684;SDS011;41883;49.544;8.646;2022-09-13T12:11:43;2.65;;;1.48;;
55684;SDS011;41883;49.544;8.646;2022-09-13T12:14:13;4.78;;;2.20;;
55684;SDS011;41883;49.544;8.646;2022-09-13T12:16:43;4.68;;;2.55;;
55684;SDS011;41883;49.544;8.646;2022-09-13T12:19:17;3.38;;;2.40;;
55684;SDS011;41883;49.544;8.646;2022-09-13T12:21:48;3.58;;;2.03;;
55684;SDS011;41883;49.544;8.646;2022-09-13T12:24:17;3.38;;;2.00;;
55684;SDS011;41883;49.544;8.646;2022-09-13T12:27:06;3.55;;;2.10;;
55684;SDS011;41883;49.544;8.646;2022-09-13T12:29:45;3.42;;;2.63;;
55684;SDS011;41883;49.544;8.646;2022-09-13T12:32:15;4.75;;;2.78;;
55684;SDS011;41883;49.544;8.646;2022-09-13T12:34:47;3.92;;;2.97;;
55684;SDS011;41883;49.544;8.646;2022-09-13T12:40:14;5.38;;;3.20;;
55684;SDS011;41883;49.544;8.646;2022-09-13T12:45:41;4.35;;;2.67;;
55684;SDS011;41883;49.544;8.646;2022-09-13T12:48:45;4.30;;;2.70;;
55684;SDS011;41883;49.544;8.646;2022-09-13T13:02:21;2.95;;;1.58;;
55684;SDS011;41883;49.544;8.646;2022-09-13T13:04:49;2.10;;;1.40;;
55684;SDS011;41883;49.544;8.646;2022-09-13T13:07:20;2.78;;;1.42;;
55684;SDS011;41883;49.544;8.646;2022-09-13T13:09:47;1.90;;;1.40;;
55684;SDS011;41883;49.544;8.646;2022-09-13T13:15:04;2.35;;;1.80;;
55684;SDS011;41883;49.544;8.646;2022-09-13T13:31:07;2.63;;;1.58;;
55684;SDS011;41883;49.544;8.646;2022-09-13T13:33:58;2.75;;;2.13;;
55684;SDS011;41883;49.544;8.646;2022-09-13T13:39:04;3.17;;;1.77;;
55684;SDS011;41883;49.544;8.646;2022-09-13T13:46:42;4.53;;;2.00;;
55684;SDS011;41883;49.544;8.646;2022-09-13T13:59:52;3.22;;;1.90;;
55684;SDS011;41883;49.544;8.646;2022-09-13T14:02:21;2.38;;;1.63;;
55684;SDS011;41883;49.544;8.646;2022-09-13T14:10:29;2.45;;;1.88;;
55684;SDS011;41883;49.544;8.646;2022-09-13T14:21:34;2.17;;;1.52;;
55684;SDS011;41883;49.544;8.646;2022-09-13T14:26:45;1.98;;;1.40;;
55684;SDS011;41883;49.544;8.646;2022-09-13T14:29:15;1.73;;;1.33;;
55684;SDS011;41883;49.544;8.646;2022-09-13T14:31:49;2.35;;;1.77;;
55684;SDS011;41883;49.544;8.646;2022-09-13T14:34:21;2.20;;;1.60;;
55684;SDS011;41883;49.544;8.646;2022-09-13T14:36:54;1.90;;;1.63;;
55684;SDS011;41883;49.544;8.646;2022-09-13T14:39:22;2.08;;;1.48;;
55684;SDS011;41883;49.544;8.646;2022-09-13T14:41:48;3.13;;;1.80;;
55684;SDS011;41883;49.544;8.646;2022-09-13T14:44:24;3.67;;;2.22;;
55684;SDS011;41883;49.544;8.646;2022-09-13T14:46:53;4.47;;;2.00;;
55684;SDS011;41883;49.544;8.646;2022-09-13T14:49:27;2.58;;;1.60;;
55684;SDS011;41883;49.544;8.646;2022-09-13T14:52:01;3.25;;;1.90;;
55684;SDS011;41883;49.544;8.646;2022-09-13T14:54:34;2.50;;;1.42;;
55684;SDS011;41883;49.544;8.646;2022-09-13T14:57:05;2.75;;;1.30;;
55684;SDS011;41883;49.544;8.646;2022-09-13T14:59:47;1.80;;;1.40;;
55684;SDS011;41883;49.544;8.646;2022-09-13T15:02:20;1.60;;;1.30;;
55684;SDS011;41883;49.544;8.646;2022-09-13T15:09:55;4.38;;;2.40;;
55684;SDS011;41883;49.544;8.646;2022-09-13T15:12:23;4.82;;;2.70;;
55684;SDS011;41883;49.544;8.646;2022-09-13T15:20:19;2.25;;;2.03;;
55684;SDS011;41883;49.544;8.646;2022-09-13T15:22:46;5.88;;;2.42;;
55684;SDS011;41883;49.544;8.646;2022-09-13T15:25:21;4.20;;;2.17;;
55684;SDS011;41883;49.544;8.646;2022-09-13T15:27:52;2.92;;;1.90;;
55684;SDS011;41883;49.544;8.646;2022-09-13T15:33:01;1.98;;;1.65;;
55684;SDS011;41883;49.544;8.646;2022-09-13T15:35:30;2.42;;;1.92;;
55684;SDS011;41883;49.544;8.646;2022-09-13T15:38:01;1.67;;;1.50;;
55684;SDS011;41883;49.544;8.646;2022-09-13T15:40:43;2.90;;;2.00;;
55684;SDS011;41883;49.544;8.646;2022-09-13T15:43:11;2.20;;;1.70;;
55684;SDS011;41883;49.544;8.646;2022-09-13T15:45:36;1.85;;;1.55;;
55684;SDS011;41883;49.544;8.646;2022-09-13T15:48:01;1.80;;;1.40;;
55684;SDS011;41883;49.544;8.646;2022-09-13T15:50:28;2.55;;;1.95;;
55684;SDS011;41883;49.544;8.646;2022-09-13T15:52:57;2.50;;;1.97;;
55684;SDS011;41883;49.544;8.646;2022-09-13T15:55:24;3.05;;;2.40;;
55684;SDS011;41883;49.544;8.646;2022-09-13T15:57:51;3.60;;;2.30;;
55684;SDS011;41883;49.544;8.646;2022-09-13T16:00:18;3.13;;;2.10;;
55684;SDS011;41883;49.544;8.646;2022-09-13T16:02:45;4.07;;;2.08;;
55684;SDS011;41883;49.544;8.646;2022-09-13T16:05:11;2.93;;;2.00;;
55684;SDS011;41883;49.544;8.646;2022-09-13T16:07:36;2.30;;;2.00;;
55684;SDS011;41883;49.544;8.646;2022-09-13T16:10:03;2.85;;;1.95;;
55684;SDS011;41883;49.544;8.646;2022-09-13T16:12:31;2.78;;;2.00;;
55684;SDS011;41883;49.544;8.646;2022-09-13T16:14:57;2.80;;;2.37;;
55684;SDS011;41883;49.544;8.646;2022-09-13T16:17:23;2.67;;;2.10;;
55684;SDS011;41883;49.544;8.646;2022-09-13T16:19:50;3.63;;;2.22;;
55684;SDS011;41883;49.544;8.646;2022-09-13T16:22:16;4.90;;;2.60;;
55684;SDS011;41883;49.544;8.646;2022-09-13T16:24:41;3.25;;;2.80;;
55684;SDS011;41883;49.544;8.646;2022-09-13T16:27:08;4.47;;;2.47;;
55684;SDS011;41883;49.544;8.646;2022-09-13T16:29:34;4.25;;;2.50;;
55684;SDS011;41883;49.544;8.646;2022-09-13T16:32:00;3.17;;;2.37;;
55684;SDS011;41883;49.544;8.646;2022-09-13T16:34:25;2.83;;;2.40;;
55684;SDS011;41883;49.544;8.646;2022-09-13T16:36:51;3.88;;;2.30;;
55684;SDS011;41883;49.544;8.646;2022-09-13T16:39:16;4.90;;;2.60;;
55684;SDS011;41883;49.544;8.646;2022-09-13T16:41:42;3.55;;;2.65;;
55684;SDS011;41883;49.544;8.646;2022-09-13T16:44:08;4.05;;;3.08;;
55684;SDS011;41883;49.544;8.646;2022-09-13T16:46:33;2.90;;;2.50;;
55684;SDS011;41883;49.544;8.646;2022-09-13T16:48:58;3.85;;;2.70;;
55684;SDS011;41883;49.544;8.646;2022-09-13T16:51:24;3.33;;;2.10;;
55684;SDS011;41883;49.544;8.646;2022-09-13T16:53:50;2.88;;;1.98;;
55684;SDS011;41883;49.544;8.646;2022-09-13T16:56:17;2.50;;;2.00;;
55684;SDS011;41883;49.544;8.646;2022-09-13T16:58:45;2.42;;;2.10;;
55684;SDS011;41883;49.544;8.646;2022-09-13T17:01:12;2.95;;;2.13;;
55684;SDS011;41883;49.544;8.646;2022-09-13T17:03:39;5.03;;;3.25;;
55684;SDS011;41883;49.544;8.646;2022-09-13T17:06:08;5.20;;;3.70;;
55684;SDS011;41883;49.544;8.646;2022-09-13T17:08:36;4.38;;;3.63;;
55684;SDS011;41883;49.544;8.646;2022-09-13T17:11:03;6.25;;;3.40;;
55684;SDS011;41883;49.544;8.646;2022-09-13T17:13:34;5.22;;;3.47;;
55684;SDS011;41883;49.544;8.646;2022-09-13T17:16:00;4.03;;;3.25;;
55684;SDS011;41883;49.544;8.646;2022-09-13T17:18:25;5.05;;;3.30;;
55684;SDS011;41883;49.544;8.646;2022-09-13T17:20:50;7.55;;;3.80;;
55684;SDS011;41883;49.544;8.646;2022-09-13T17:23:16;6.07;;;3.53;;
55684;SDS011;41883;49.544;8.646;2022-09-13T17:25:47;6.45;;;3.35;;
55684;SDS011;41883;49.544;8.646;2022-09-13T17:28:13;5.18;;;3.40;;
55684;SDS011;41883;49.544;8.646;2022-09-13T17:30:39;4.70;;;3.20;;
55684;SDS011;41883;49.544;8.646;2022-09-13T17:33:05;6.05;;;2.80;;
55684;SDS011;41883;49.544;8.646;2022-09-13T17:35:31;5.82;;;3.25;;
55684;SDS011;41883;49.544;8.646;2022-09-13T17:37:58;4.65;;;2.90;;
55684;SDS011;41883;49.544;8.646;2022-09-13T17:40:24;4.88;;;3.40;;
55684;SDS011;41883;49.544;8.646;2022-09-13T17:42:50;6.40;;;3.17;;
55684;SDS011;41883;49.544;8.646;2022-09-13T17:45:15;3.17;;;2.50;;
55684;SDS011;41883;49.544;8.646;2022-09-13T17:47:40;5.25;;;2.60;;
55684;SDS011;41883;49.544;8.646;2022-09-13T17:50:07;3.97;;;2.60;;
55684;SDS011;41883;49.544;8.646;2022-09-13T17:52:32;4.18;;;3.03;;
55684;SDS011;41883;49.544;8.646;2022-09-13T17:54:58;4.35;;;3.00;;
55684;SDS011;41883;49.544;8.646;2022-09-13T17:57:23;3.88;;;3.17;;
55684;SDS011;41883;49.544;8.646;2022-09-13T17:59:49;3.75;;;3.30;;
55684;SDS011;41883;49.544;8.646;2022-09-13T18:02:15;4.53;;;3.60;;
55684;SDS011;41883;49.544;8.646;2022-09-13T18:04:40;5.00;;;3.50;;
55684;SDS011;41883;49.544;8.646;2022-09-13T18:07:06;3.80;;;2.90;;
55684;SDS011;41883;49.544;8.646;2022-09-13T18:09:31;4.18;;;2.90;;
55684;SDS011;41883;49.544;8.646;2022-09-13T18:11:56;2.92;;;2.45;;
55684;SDS011;41883;49.544;8.646;2022-09-13T18:14:22;3.22;;;2.50;;
55684;SDS011;41883;49.544;8.646;2022-09-13T18:16:48;3.50;;;2.25;;
55684;SDS011;41883;49.544;8.646;2022-09-13T18:19:19;5.45;;;2.50;;
55684;SDS011;41883;49.544;8.646;2022-09-13T18:21:45;5.60;;;3.50;;
55684;SDS011;41883;49.544;8.646;2022-09-13T18:24:10;4.00;;;3.23;;
55684;SDS011;41883;49.544;8.646;2022-09-13T18:26:35;3.75;;;3.30;;